createdAt,value
2019-04-18T00:00:38.652Z,1005.85
2019-04-18T00:01:48.572Z,1005.86
2019-04-18T00:02:58.491Z,1005.86
2019-04-18T00:04:08.851Z,1005.82
2019-04-18T00:05:18.906Z,1005.82
2019-04-18T00:06:28.975Z,1005.84
2019-04-18T00:07:38.898Z,1005.78
2019-04-18T00:08:48.823Z,1005.83
2019-04-18T00:09:58.504Z,1005.82
2019-04-18T00:11:08.939Z,1005.78
2019-04-18T00:12:23.434Z,1005.82
2019-04-18T00:13:33.398Z,1005.83
2019-04-18T00:14:49.752Z,1005.78
2019-04-18T00:15:59.958Z,1005.82
2019-04-18T00:17:13.257Z,1005.83
2019-04-18T00:18:23.213Z,1005.81
2019-04-18T00:19:35.998Z,1005.81
2019-04-18T00:20:49.907Z,1005.83
2019-04-18T00:22:00.236Z,1005.84
2019-04-18T00:23:10.164Z,1005.87
2019-04-18T00:24:20.078Z,1005.86
2019-04-18T00:25:30.009Z,1005.89
2019-04-18T00:26:43.944Z,1005.89
2019-04-18T00:27:54.598Z,1005.9
2019-04-18T00:29:05.240Z,1005.86
2019-04-18T00:30:15.640Z,1005.87
2019-04-18T00:31:25.558Z,1005.9
2019-04-18T00:32:39.026Z,1005.9
2019-04-18T00:34:09.356Z,1005.89
2019-04-18T00:35:23.710Z,1005.91
2019-04-18T00:36:33.633Z,1005.94
2019-04-18T00:37:43.548Z,1005.92
2019-04-18T00:39:00.234Z,1005.96
2019-04-18T00:40:16.048Z,1005.93
2019-04-18T00:41:25.964Z,1005.93
2019-04-18T00:42:35.894Z,1005.97
2019-04-18T00:43:45.813Z,1005.95
2019-04-18T00:45:05.164Z,1005.94
2019-04-18T00:46:20.227Z,1005.91
2019-04-18T00:47:30.153Z,1005.94
2019-04-18T00:48:40.104Z,1005.92
2019-04-18T00:49:50.081Z,1005.94
2019-04-18T00:50:59.772Z,1005.92
2019-04-18T00:52:10.156Z,1005.94
2019-04-18T00:53:24.416Z,1005.92
2019-04-18T00:54:34.331Z,1005.93
2019-04-18T00:55:44.360Z,1005.94
2019-04-18T00:56:54.027Z,1005.92
2019-04-18T00:58:18.084Z,1005.96
2019-04-18T00:59:28.540Z,1005.92
2019-04-18T01:00:38.459Z,1005.91
2019-04-18T01:01:48.487Z,1005.92
2019-04-18T01:02:59.222Z,1005.94
2019-04-18T01:04:24.853Z,1005.9
2019-04-18T01:05:42.382Z,1005.99
2019-04-18T01:06:53.191Z,1005.96
2019-04-18T01:08:04.154Z,1005.97
2019-04-18T01:09:14.091Z,1005.95
2019-04-18T01:10:24.012Z,1005.97
2019-04-18T01:11:33.934Z,1005.95
2019-04-18T01:12:43.864Z,1005.98
2019-04-18T01:13:53.778Z,1005.98
2019-04-18T01:15:03.936Z,1005.98
2019-04-18T01:16:14.374Z,1005.98
2019-04-18T01:17:28.750Z,1005.98
2019-04-18T01:18:47.424Z,1006.01
2019-04-18T01:19:58.428Z,1006
2019-04-18T01:21:08.971Z,1006.04
2019-04-18T01:22:18.891Z,1006.05
2019-04-18T01:23:28.914Z,1006.04
2019-04-18T01:24:38.831Z,1006.06
2019-04-18T01:25:48.865Z,1006.07
2019-04-18T01:26:59.805Z,1006.07
2019-04-18T01:28:10.395Z,1006.12
2019-04-18T01:29:20.367Z,1006.09
2019-04-18T01:30:30.309Z,1006.12
2019-04-18T01:31:40.230Z,1006.1
2019-04-18T01:32:50.153Z,1006.16
2019-04-18T01:34:15.492Z,1006.11
2019-04-18T01:35:41.458Z,1006.12
2019-04-18T01:36:57.324Z,1006.14
2019-04-18T01:38:12.019Z,1006.11
2019-04-18T01:39:22.008Z,1006.11
2019-04-18T01:40:31.927Z,1006.14
2019-04-18T01:41:41.858Z,1006.15
2019-04-18T01:42:53.674Z,1006.16
2019-04-18T01:44:14.359Z,1006.2
2019-04-18T01:45:24.391Z,1006.18
2019-04-18T01:46:34.310Z,1006.16
2019-04-18T01:47:44.226Z,1006.17
2019-04-18T01:48:54.151Z,1006.18
2019-04-18T01:50:15.576Z,1006.25
2019-04-18T01:51:26.637Z,1006.23
2019-04-18T01:52:36.559Z,1006.23
2019-04-18T01:53:46.482Z,1006.27
2019-04-18T01:54:56.401Z,1006.24
2019-04-18T01:56:06.638Z,1006.26
2019-04-18T01:57:16.562Z,1006.25
2019-04-18T01:58:33.530Z,1006.32
2019-04-18T01:59:43.798Z,1006.29
2019-04-18T02:00:53.717Z,1006.25
2019-04-18T02:02:03.758Z,1006.28
2019-04-18T02:03:13.683Z,1006.26
2019-04-18T02:04:23.611Z,1006.26
2019-04-18T02:05:33.535Z,1006.27
2019-04-18T02:06:43.455Z,1006.28
2019-04-18T02:07:53.369Z,1006.27
2019-04-18T02:09:03.726Z,1006.28
2019-04-18T02:10:14.188Z,1006.22
2019-04-18T02:11:27.567Z,1006.27
2019-04-18T02:12:42.838Z,1006.25
2019-04-18T02:13:54.769Z,1006.2
2019-04-18T02:15:05.010Z,1006.2
2019-04-18T02:16:15.417Z,1006.22
2019-04-18T02:17:25.336Z,1006.25
2019-04-18T02:18:35.306Z,1006.21
2019-04-18T02:19:45.225Z,1006.25
2019-04-18T02:20:57.542Z,1006.25
2019-04-18T02:22:16.699Z,1006.21
2019-04-18T02:23:26.826Z,1006.23
2019-04-18T02:24:36.842Z,1006.21
2019-04-18T02:25:46.762Z,1006.2
2019-04-18T02:26:56.679Z,1006.23
2019-04-18T02:28:06.603Z,1006.25
2019-04-18T02:29:16.539Z,1006.29
2019-04-18T02:30:26.469Z,1006.25
2019-04-18T02:31:36.164Z,1006.3
2019-04-18T02:32:46.094Z,1006.31
2019-04-18T02:33:56.018Z,1006.31
2019-04-18T02:35:19.326Z,1006.31
2019-04-18T02:36:37.536Z,1006.29
2019-04-18T02:37:47.513Z,1006.35
2019-04-18T02:38:57.194Z,1006.35
2019-04-18T02:40:07.545Z,1006.32
2019-04-18T02:41:17.868Z,1006.31
2019-04-18T02:42:27.787Z,1006.3
2019-04-18T02:43:37.714Z,1006.32
2019-04-18T02:44:47.647Z,1006.31
2019-04-18T02:46:04.478Z,1006.28
2019-04-18T02:47:21.066Z,1006.3
2019-04-18T02:48:30.986Z,1006.31
2019-04-18T02:49:40.916Z,1006.35
2019-04-18T02:50:50.845Z,1006.4
2019-04-18T02:52:01.806Z,1006.37
2019-04-18T02:53:12.989Z,1006.43
2019-04-18T02:54:22.945Z,1006.42
2019-04-18T02:55:32.866Z,1006.4
2019-04-18T02:56:42.797Z,1006.41
2019-04-18T02:57:54.712Z,1006.43
2019-04-18T02:59:17.360Z,1006.41
2019-04-18T03:00:27.626Z,1006.41
2019-04-18T03:01:37.572Z,1006.44
2019-04-18T03:02:47.486Z,1006.37
2019-04-18T03:03:57.652Z,1006.39
2019-04-18T03:05:07.990Z,1006.4
2019-04-18T03:06:32.851Z,1006.41
2019-04-18T03:07:44.487Z,1006.43
2019-04-18T03:09:00.133Z,1006.4
2019-04-18T03:10:12.665Z,1006.4
2019-04-18T03:11:23.136Z,1006.38
2019-04-18T03:12:33.053Z,1006.39
2019-04-18T03:13:42.970Z,1006.37
2019-04-18T03:14:52.889Z,1006.39
2019-04-18T03:16:05.598Z,1006.4
2019-04-18T03:17:29.239Z,1006.41
2019-04-18T03:18:39.696Z,1006.35
2019-04-18T03:19:49.615Z,1006.37
2019-04-18T03:20:59.533Z,1006.37
2019-04-18T03:22:09.708Z,1006.37
2019-04-18T03:23:19.647Z,1006.41
2019-04-18T03:24:29.613Z,1006.41
2019-04-18T03:25:39.531Z,1006.45
2019-04-18T03:26:52.400Z,1006.39
2019-04-18T03:28:10.837Z,1006.37
2019-04-18T03:29:22.678Z,1006.41
2019-04-18T03:30:32.717Z,1006.41
2019-04-18T03:31:42.416Z,1006.42
2019-04-18T03:33:03.084Z,1006.44
2019-04-18T03:34:28.831Z,1006.43
2019-04-18T03:35:48.658Z,1006.42
2019-04-18T03:37:05.943Z,1006.43
2019-04-18T03:38:16.118Z,1006.45
2019-04-18T03:39:26.035Z,1006.45
2019-04-18T03:40:36.003Z,1006.46
2019-04-18T03:41:45.920Z,1006.44
2019-04-18T03:42:55.839Z,1006.42
2019-04-18T03:44:14.220Z,1006.46
2019-04-18T03:45:25.738Z,1006.47
2019-04-18T03:46:35.654Z,1006.46
2019-04-18T03:47:45.582Z,1006.47
2019-04-18T03:49:00.739Z,1006.46
2019-04-18T03:50:17.543Z,1006.48
2019-04-18T03:51:29.171Z,1006.48
2019-04-18T03:52:39.105Z,1006.52
2019-04-18T03:53:49.035Z,1006.52
2019-04-18T03:55:02.386Z,1006.5
2019-04-18T03:56:14.168Z,1006.53
2019-04-18T03:57:26.480Z,1006.53
2019-04-18T03:58:42.532Z,1006.53
2019-04-18T03:59:52.700Z,1006.48
2019-04-18T04:01:03.300Z,1006.47
2019-04-18T04:02:13.845Z,1006.49
2019-04-18T04:03:23.802Z,1006.51
2019-04-18T04:04:33.725Z,1006.52
2019-04-18T04:05:43.655Z,1006.52
2019-04-18T04:07:21.738Z,1006.54
2019-04-18T04:08:33.396Z,1006.55
2019-04-18T04:09:43.328Z,1006.58
2019-04-18T04:10:53.242Z,1006.55
2019-04-18T04:12:02.911Z,1006.57
2019-04-18T04:13:13.448Z,1006.56
2019-04-18T04:14:23.385Z,1006.64
2019-04-18T04:15:33.354Z,1006.62
2019-04-18T04:16:43.269Z,1006.67
2019-04-18T04:17:58.885Z,1006.63
2019-04-18T04:19:21.190Z,1006.65
2019-04-18T04:20:31.905Z,1006.68
2019-04-18T04:21:41.824Z,1006.69
2019-04-18T04:22:51.848Z,1006.66
2019-04-18T04:24:01.769Z,1006.65
2019-04-18T04:25:12.120Z,1006.68
2019-04-18T04:26:22.051Z,1006.68
2019-04-18T04:27:31.971Z,1006.65
2019-04-18T04:28:41.893Z,1006.69
2019-04-18T04:29:51.898Z,1006.66
2019-04-18T04:31:01.816Z,1006.67
2019-04-18T04:32:13.132Z,1006.66
2019-04-18T04:33:33.268Z,1006.66
2019-04-18T04:34:47.676Z,1006.69
2019-04-18T04:36:01.331Z,1006.71
2019-04-18T04:37:37.982Z,1006.68
2019-04-18T04:38:53.001Z,1006.71
2019-04-18T04:40:02.971Z,1006.69
2019-04-18T04:41:14.663Z,1006.72
2019-04-18T04:42:24.808Z,1006.72
2019-04-18T04:43:34.482Z,1006.73
2019-04-18T04:44:44.154Z,1006.78
2019-04-18T04:45:54.121Z,1006.76
2019-04-18T04:47:11.381Z,1006.76
2019-04-18T04:48:28.549Z,1006.81
2019-04-18T04:49:38.737Z,1006.82
2019-04-18T04:50:48.656Z,1006.84
2019-04-18T04:51:59.226Z,1006.8
2019-04-18T04:53:09.152Z,1006.79
2019-04-18T04:54:19.911Z,1006.81
2019-04-18T04:55:29.897Z,1006.84
2019-04-18T04:56:39.814Z,1006.79
2019-04-18T04:57:55.321Z,1006.83
2019-04-18T04:59:13.927Z,1006.78
2019-04-18T05:00:25.078Z,1006.82
2019-04-18T05:01:35.085Z,1006.81
2019-04-18T05:02:45.120Z,1006.8
2019-04-18T05:03:55.074Z,1006.81
2019-04-18T05:05:04.999Z,1006.86
2019-04-18T05:06:15.330Z,1006.86
2019-04-18T05:07:51.063Z,1006.88
2019-04-18T05:09:04.601Z,1006.89
2019-04-18T05:10:15.473Z,1006.89
2019-04-18T05:11:25.534Z,1006.9
2019-04-18T05:12:35.453Z,1006.87
2019-04-18T05:13:45.381Z,1006.91
2019-04-18T05:14:55.305Z,1006.91
2019-04-18T05:16:05.607Z,1006.92
2019-04-18T05:17:16.066Z,1006.98
2019-04-18T05:18:25.796Z,1006.95
2019-04-18T05:19:35.711Z,1006.96
2019-04-18T05:20:45.631Z,1006.97
2019-04-18T05:21:55.553Z,1006.98
2019-04-18T05:23:05.482Z,1006.99
2019-04-18T05:24:16.102Z,1006.98
2019-04-18T05:25:32.358Z,1006.99
2019-04-18T05:26:42.287Z,1007
2019-04-18T05:27:52.230Z,1007.01
2019-04-18T05:29:02.154Z,1007
2019-04-18T05:30:15.397Z,1007.02
2019-04-18T05:31:25.323Z,1007.07
2019-04-18T05:32:37.885Z,1007.05
2019-04-18T05:33:50.355Z,1007.1
2019-04-18T05:35:00.273Z,1007.12
2019-04-18T05:36:10.913Z,1007.12
2019-04-18T05:37:23.435Z,1007.12
2019-04-18T05:38:33.368Z,1007.14
2019-04-18T05:39:43.287Z,1007.14
2019-04-18T05:40:53.222Z,1007.15
2019-04-18T05:42:03.161Z,1007.18
2019-04-18T05:43:13.604Z,1007.14
2019-04-18T05:44:31.517Z,1007.17
2019-04-18T05:45:46.150Z,1007.13
2019-04-18T05:46:56.318Z,1007.15
2019-04-18T05:48:06.296Z,1007.15
2019-04-18T05:49:17.183Z,1007.15
2019-04-18T05:50:26.950Z,1007.13
2019-04-18T05:51:36.869Z,1007.09
2019-04-18T05:52:46.840Z,1007.17
2019-04-18T05:54:02.773Z,1007.18
2019-04-18T05:55:16.602Z,1007.19
2019-04-18T05:56:30.599Z,1007.24
2019-04-18T05:57:40.297Z,1007.22
2019-04-18T05:58:50.230Z,1007.22
2019-04-18T06:00:00.155Z,1007.24
2019-04-18T06:01:10.944Z,1007.18
2019-04-18T06:02:23.509Z,1007.21
2019-04-18T06:03:33.906Z,1007.26
2019-04-18T06:04:43.852Z,1007.2
2019-04-18T06:05:53.772Z,1007.19
2019-04-18T06:07:14.914Z,1007.25
2019-04-18T06:08:33.675Z,1007.24
2019-04-18T06:09:43.703Z,1007.27
2019-04-18T06:10:53.627Z,1007.28
2019-04-18T06:12:03.549Z,1007.3
2019-04-18T06:13:17.890Z,1007.3
2019-04-18T06:14:27.817Z,1007.3
2019-04-18T06:15:41.874Z,1007.32
2019-04-18T06:16:58.924Z,1007.33
2019-04-18T06:18:11.201Z,1007.3
2019-04-18T06:19:23.237Z,1007.27
2019-04-18T06:20:33.894Z,1007.35
2019-04-18T06:21:44.147Z,1007.34
2019-04-18T06:22:54.064Z,1007.32
2019-04-18T06:24:06.783Z,1007.32
2019-04-18T06:25:20.070Z,1007.34
2019-04-18T06:26:31.432Z,1007.31
2019-04-18T06:27:41.622Z,1007.3
2019-04-18T06:28:51.543Z,1007.32
2019-04-18T06:30:01.466Z,1007.32
2019-04-18T06:31:13.225Z,1007.33
2019-04-18T06:32:23.967Z,1007.26
2019-04-18T06:33:36.283Z,1007.33
2019-04-18T06:34:46.365Z,1007.36
2019-04-18T06:35:56.297Z,1007.36
2019-04-18T06:37:07.078Z,1007.38
2019-04-18T06:38:43.885Z,1007.39
2019-04-18T06:39:58.341Z,1007.37
2019-04-18T06:41:08.712Z,1007.44
2019-04-18T06:42:19.091Z,1007.4
2019-04-18T06:43:29.041Z,1007.42
2019-04-18T06:44:38.997Z,1007.42
2019-04-18T06:45:48.919Z,1007.43
2019-04-18T06:46:58.839Z,1007.46
2019-04-18T06:48:08.759Z,1007.54
2019-04-18T06:49:18.706Z,1007.49
2019-04-18T06:50:28.637Z,1007.51
2019-04-18T06:51:38.567Z,1007.53
2019-04-18T06:52:48.490Z,1007.52
2019-04-18T06:53:58.413Z,1007.54
2019-04-18T06:55:08.341Z,1007.52
2019-04-18T06:56:18.895Z,1007.53
2019-04-18T06:57:29.230Z,1007.49
2019-04-18T06:58:42.675Z,1007.51
2019-04-18T06:59:57.336Z,1007.56
2019-04-18T07:01:11.571Z,1007.53
2019-04-18T07:02:21.313Z,1007.56
2019-04-18T07:03:31.235Z,1007.57
2019-04-18T07:04:41.158Z,1007.57
2019-04-18T07:05:51.183Z,1007.57
2019-04-18T07:07:05.838Z,1007.58
2019-04-18T07:08:44.840Z,1007.59
2019-04-18T07:09:59.581Z,1007.56
2019-04-18T07:11:18.510Z,1007.59
2019-04-18T07:12:28.429Z,1007.59
2019-04-18T07:13:40.848Z,1007.58
2019-04-18T07:14:55.867Z,1007.56
2019-04-18T07:16:12.223Z,1007.62
2019-04-18T07:17:23.772Z,1007.61
2019-04-18T07:18:33.875Z,1007.62
2019-04-18T07:19:47.254Z,1007.61
2019-04-18T07:20:57.176Z,1007.64
2019-04-18T07:22:07.412Z,1007.66
2019-04-18T07:23:17.844Z,1007.68
2019-04-18T07:24:27.770Z,1007.63
2019-04-18T07:25:37.706Z,1007.71
2019-04-18T07:26:47.639Z,1007.68
2019-04-18T07:28:01.286Z,1007.68
2019-04-18T07:29:12.592Z,1007.66
2019-04-18T07:30:22.513Z,1007.68
2019-04-18T07:31:32.644Z,1007.68
2019-04-18T07:32:42.605Z,1007.66
2019-04-18T07:33:52.592Z,1007.69
2019-04-18T07:35:02.520Z,1007.71
2019-04-18T07:36:12.512Z,1007.65
2019-04-18T07:37:22.919Z,1007.69
2019-04-18T07:38:34.088Z,1007.68
2019-04-18T07:39:44.303Z,1007.71
2019-04-18T07:40:54.245Z,1007.7
2019-04-18T07:42:04.169Z,1007.71
2019-04-18T07:43:14.111Z,1007.7
2019-04-18T07:44:24.042Z,1007.7
2019-04-18T07:45:33.976Z,1007.7
2019-04-18T07:46:43.912Z,1007.75
2019-04-18T07:47:53.836Z,1007.75
2019-04-18T07:49:03.770Z,1007.75
2019-04-18T07:50:14.162Z,1007.73
2019-04-18T07:51:24.432Z,1007.73
2019-04-18T07:52:34.394Z,1007.75
2019-04-18T07:53:47.354Z,1007.75
2019-04-18T07:54:57.275Z,1007.73
2019-04-18T07:56:08.620Z,1007.73
2019-04-18T07:57:23.320Z,1007.74
2019-04-18T07:58:34.276Z,1007.8
2019-04-18T07:59:44.286Z,1007.75
2019-04-18T08:00:56.724Z,1007.74
2019-04-18T08:02:06.426Z,1007.76
2019-04-18T08:03:17.535Z,1007.76
2019-04-18T08:05:11.068Z,1007.72
2019-04-18T08:06:23.838Z,1007.78
2019-04-18T08:07:34.434Z,1007.75
2019-04-18T08:08:44.460Z,1007.74
2019-04-18T08:09:54.393Z,1007.7
2019-04-18T08:11:25.921Z,1007.74
2019-04-18T08:12:40.507Z,1007.77
2019-04-18T08:13:50.704Z,1007.76
2019-04-18T08:15:00.631Z,1007.75
2019-04-18T08:16:10.805Z,1007.75
2019-04-18T08:17:20.929Z,1007.76
2019-04-18T08:18:30.853Z,1007.76
2019-04-18T08:19:44.762Z,1007.79
2019-04-18T08:20:58.772Z,1007.78
2019-04-18T08:22:10.018Z,1007.77
2019-04-18T08:23:26.882Z,1007.8
2019-04-18T08:24:47.289Z,1007.81
2019-04-18T08:26:00.822Z,1007.83
2019-04-18T08:27:11.304Z,1007.76
2019-04-18T08:28:20.989Z,1007.79
2019-04-18T08:29:30.947Z,1007.78
2019-04-18T08:30:40.906Z,1007.78
2019-04-18T08:31:50.920Z,1007.78
2019-04-18T08:33:00.901Z,1007.77
2019-04-18T08:34:10.830Z,1007.78
2019-04-18T08:35:24.464Z,1007.77
2019-04-18T08:36:34.499Z,1007.79
2019-04-18T08:37:44.432Z,1007.78
2019-04-18T08:38:58.201Z,1007.78
2019-04-18T08:40:12.029Z,1007.74
2019-04-18T08:41:27.151Z,1007.75
2019-04-18T08:42:37.663Z,1007.8
2019-04-18T08:43:47.596Z,1007.76
2019-04-18T08:44:57.529Z,1007.77
2019-04-18T08:46:07.463Z,1007.76
2019-04-18T08:47:18.500Z,1007.74
2019-04-18T08:48:28.967Z,1007.74
2019-04-18T08:49:38.898Z,1007.8
2019-04-18T08:50:49.084Z,1007.72
2019-04-18T08:51:59.043Z,1007.76
2019-04-18T08:53:08.995Z,1007.72
2019-04-18T08:54:18.928Z,1007.73
2019-04-18T08:55:28.851Z,1007.73
2019-04-18T08:56:38.775Z,1007.78
2019-04-18T08:57:48.725Z,1007.74
2019-04-18T08:58:58.708Z,1007.75
2019-04-18T09:00:09.437Z,1007.75
2019-04-18T09:01:19.995Z,1007.71
2019-04-18T09:02:29.732Z,1007.73
2019-04-18T09:03:41.504Z,1007.69
2019-04-18T09:04:54.384Z,1007.7
2019-04-18T09:06:34.327Z,1007.68
2019-04-18T09:07:51.140Z,1007.69
2019-04-18T09:09:12.693Z,1007.69
2019-04-18T09:10:34.307Z,1007.64
2019-04-18T09:12:00.880Z,1007.66
2019-04-18T09:13:19.588Z,1007.64
2019-04-18T09:15:05.723Z,1007.64
2019-04-18T09:16:20.596Z,1007.61
2019-04-18T09:17:35.069Z,1007.62
2019-04-18T09:18:52.376Z,1007.65
2019-04-18T09:20:11.282Z,1007.66
2019-04-18T09:21:36.306Z,1007.6
2019-04-18T09:22:55.109Z,1007.56
2019-04-18T09:24:20.185Z,1007.56
2019-04-18T09:25:34.608Z,1007.57
2019-04-18T09:26:46.149Z,1007.62
2019-04-18T09:27:58.354Z,1007.61
2019-04-18T09:29:12.451Z,1007.6
2019-04-18T09:30:24.972Z,1007.6
2019-04-18T09:31:34.985Z,1007.64
2019-04-18T09:32:49.097Z,1007.58
2019-04-18T09:33:59.375Z,1007.56
2019-04-18T09:35:14.610Z,1007.55
2019-04-18T09:36:26.878Z,1007.55
2019-04-18T09:37:38.792Z,1007.52
2019-04-18T09:38:48.717Z,1007.53
2019-04-18T09:39:58.643Z,1007.54
2019-04-18T09:41:08.954Z,1007.55
2019-04-18T09:42:19.107Z,1007.49
2019-04-18T09:43:31.326Z,1007.52
2019-04-18T09:44:45.428Z,1007.49
2019-04-18T09:45:59.319Z,1007.5
2019-04-18T09:47:17.113Z,1007.51
2019-04-18T09:48:30.501Z,1007.52
2019-04-18T09:49:41.428Z,1007.51
2019-04-18T09:50:51.393Z,1007.51
2019-04-18T09:52:01.318Z,1007.48
2019-04-18T09:53:11.726Z,1007.48
2019-04-18T09:54:21.661Z,1007.48
2019-04-18T09:55:31.589Z,1007.42
2019-04-18T09:56:41.516Z,1007.47
2019-04-18T09:57:51.455Z,1007.46
2019-04-18T09:59:01.385Z,1007.44
2019-04-18T10:00:18.632Z,1007.45
2019-04-18T10:01:34.111Z,1007.44
2019-04-18T10:02:44.037Z,1007.45
2019-04-18T10:03:53.967Z,1007.45
2019-04-18T10:05:21.143Z,1007.39
2019-04-18T10:06:35.510Z,1007.4
2019-04-18T10:07:45.451Z,1007.36
2019-04-18T10:08:59.216Z,1007.4
2019-04-18T10:10:09.152Z,1007.39
2019-04-18T10:11:19.190Z,1007.41
2019-04-18T10:12:31.699Z,1007.39
2019-04-18T10:13:41.824Z,1007.35
2019-04-18T10:14:51.755Z,1007.3
2019-04-18T10:16:26.942Z,1007.38
2019-04-18T10:17:42.189Z,1007.37
2019-04-18T10:18:55.220Z,1007.35
2019-04-18T10:20:05.220Z,1007.29
2019-04-18T10:21:17.204Z,1007.34
2019-04-18T10:22:31.409Z,1007.33
2019-04-18T10:23:41.334Z,1007.31
2019-04-18T10:24:51.263Z,1007.34
2019-04-18T10:26:01.210Z,1007.31
2019-04-18T10:27:15.381Z,1007.31
2019-04-18T10:28:25.322Z,1007.27
2019-04-18T10:29:35.256Z,1007.25
2019-04-18T10:30:45.210Z,1007.23
2019-04-18T10:31:55.144Z,1007.25
2019-04-18T10:33:05.195Z,1007.27
2019-04-18T10:34:17.738Z,1007.23
2019-04-18T10:35:27.902Z,1007.19
2019-04-18T10:36:37.843Z,1007.2
2019-04-18T10:37:47.778Z,1007.18
2019-04-18T10:38:57.824Z,1007.19
2019-04-18T10:40:08.276Z,1007.23
2019-04-18T10:41:18.220Z,1007.22
2019-04-18T10:42:28.174Z,1007.23
2019-04-18T10:43:38.106Z,1007.24
2019-04-18T10:44:48.045Z,1007.22
2019-04-18T10:45:58.000Z,1007.18
2019-04-18T10:47:16.956Z,1007.15
2019-04-18T10:48:27.286Z,1007.18
2019-04-18T10:49:37.243Z,1007.16
2019-04-18T10:50:47.358Z,1007.13
2019-04-18T10:51:57.295Z,1007.11
2019-04-18T10:53:07.794Z,1007.14
2019-04-18T10:54:18.443Z,1007.09
2019-04-18T10:55:29.621Z,1007.07
2019-04-18T10:56:39.728Z,1007.07
2019-04-18T10:57:49.668Z,1007.1
2019-04-18T10:58:59.608Z,1007.09
2019-04-18T11:00:09.972Z,1007.1
2019-04-18T11:01:20.089Z,1007.07
2019-04-18T11:02:30.060Z,1007.09
2019-04-18T11:03:39.989Z,1007.05
2019-04-18T11:04:49.921Z,1007.08
2019-04-18T11:05:59.854Z,1007.05
2019-04-18T11:07:32.803Z,1007.02
2019-04-18T11:08:42.736Z,1006.97
2019-04-18T11:09:52.665Z,1007.01
2019-04-18T11:11:06.616Z,1007.03
2019-04-18T11:12:17.221Z,1006.98
2019-04-18T11:13:27.866Z,1006.97
2019-04-18T11:14:37.892Z,1006.97
2019-04-18T11:15:47.577Z,1006.95
2019-04-18T11:16:57.510Z,1006.99
2019-04-18T11:18:07.512Z,1007
2019-04-18T11:19:17.455Z,1007.03
2019-04-18T11:20:27.810Z,1007.05
2019-04-18T11:21:37.740Z,1007.11
2019-04-18T11:22:47.769Z,1007.13
2019-04-18T11:23:57.722Z,1007.05
2019-04-18T11:25:07.760Z,1007.06
2019-04-18T11:26:17.715Z,1007.02
2019-04-18T11:27:29.952Z,1007.03
2019-04-18T11:28:43.583Z,1006.99
2019-04-18T11:29:53.523Z,1007.05
2019-04-18T11:31:03.846Z,1006.97
2019-04-18T11:32:15.221Z,1006.87
2019-04-18T11:33:29.278Z,1006.92
2019-04-18T11:34:39.449Z,1006.95
2019-04-18T11:35:49.488Z,1006.95
2019-04-18T11:36:59.430Z,1006.95
2019-04-18T11:38:09.778Z,1006.87
2019-04-18T11:39:22.263Z,1006.88
2019-04-18T11:40:33.189Z,1006.88
2019-04-18T11:41:46.986Z,1006.89
2019-04-18T11:42:56.929Z,1006.81
2019-04-18T11:44:12.427Z,1006.85
2019-04-18T11:45:26.164Z,1006.68
2019-04-18T11:46:36.115Z,1006.79
2019-04-18T11:47:46.138Z,1006.74
2019-04-18T11:48:57.483Z,1006.78
2019-04-18T11:50:07.503Z,1006.73
2019-04-18T11:51:17.655Z,1006.71
2019-04-18T11:52:27.780Z,1006.75
2019-04-18T11:53:37.721Z,1006.66
2019-04-18T11:54:47.782Z,1006.74
2019-04-18T11:55:59.395Z,1006.72
2019-04-18T11:57:18.799Z,1006.71
2019-04-18T11:58:28.749Z,1006.72
2019-04-18T11:59:38.700Z,1006.7
2019-04-18T12:00:48.656Z,1006.74
2019-04-18T12:02:16.638Z,1006.69
2019-04-18T12:03:26.655Z,1006.73
2019-04-18T12:04:36.641Z,1006.6
2019-04-18T12:05:50.684Z,1006.67
2019-04-18T12:07:01.970Z,1006.63
2019-04-18T12:08:14.129Z,1006.7
2019-04-18T12:09:24.083Z,1006.65
2019-04-18T12:10:34.033Z,1006.66
2019-04-18T12:11:44.079Z,1006.66
2019-04-18T12:12:54.025Z,1006.59
2019-04-18T12:14:06.553Z,1006.6
2019-04-18T12:15:17.127Z,1006.63
2019-04-18T12:16:27.116Z,1006.61
2019-04-18T12:17:40.078Z,1006.66
2019-04-18T12:18:52.066Z,1006.57
2019-04-18T12:20:02.783Z,1006.6
2019-04-18T12:21:12.804Z,1006.57
2019-04-18T12:22:22.765Z,1006.58
2019-04-18T12:23:40.360Z,1006.62
2019-04-18T12:24:50.400Z,1006.63
2019-04-18T12:26:01.714Z,1006.6
2019-04-18T12:27:12.879Z,1006.57
2019-04-18T12:28:22.852Z,1006.57
2019-04-18T12:29:34.948Z,1006.6
2019-04-18T12:30:45.121Z,1006.59
2019-04-18T12:31:55.089Z,1006.62
2019-04-18T12:33:06.124Z,1006.58
2019-04-18T12:34:22.478Z,1006.61
2019-04-18T12:35:32.694Z,1006.58
2019-04-18T12:36:42.644Z,1006.56
2019-04-18T12:37:52.589Z,1006.58
2019-04-18T12:39:03.004Z,1006.53
2019-04-18T12:40:12.971Z,1006.53
2019-04-18T12:41:26.021Z,1006.52
2019-04-18T12:42:36.319Z,1006.49
2019-04-18T12:43:46.019Z,1006.54
2019-04-18T12:44:55.969Z,1006.46
2019-04-18T12:46:16.093Z,1006.48
2019-04-18T12:47:26.045Z,1006.52
2019-04-18T12:48:36.015Z,1006.47
2019-04-18T12:49:45.995Z,1006.51
2019-04-18T12:50:55.953Z,1006.48
2019-04-18T12:52:10.449Z,1006.5
2019-04-18T12:53:24.278Z,1006.44
2019-04-18T12:54:34.223Z,1006.47
2019-04-18T12:55:44.170Z,1006.44
2019-04-18T12:56:58.107Z,1006.46
2019-04-18T12:58:11.951Z,1006.44
2019-04-18T12:59:22.783Z,1006.39
2019-04-18T13:00:32.731Z,1006.35
2019-04-18T13:01:46.974Z,1006.31
2019-04-18T13:02:57.204Z,1006.36
2019-04-18T13:04:07.813Z,1006.39
2019-04-18T13:05:17.765Z,1006.38
2019-04-18T13:06:27.714Z,1006.34
2019-04-18T13:07:37.660Z,1006.34
2019-04-18T13:08:47.643Z,1006.39
2019-04-18T13:09:57.687Z,1006.47
2019-04-18T13:11:08.674Z,1006.47
2019-04-18T13:12:18.957Z,1006.41
2019-04-18T13:13:28.921Z,1006.44
2019-04-18T13:14:42.124Z,1006.38
2019-04-18T13:16:00.664Z,1006.36
2019-04-18T13:17:10.652Z,1006.41
2019-04-18T13:18:20.600Z,1006.36
2019-04-18T13:19:30.566Z,1006.38
2019-04-18T13:20:40.621Z,1006.31
2019-04-18T13:21:50.577Z,1006.29
2019-04-18T13:23:01.509Z,1006.28
2019-04-18T13:24:16.183Z,1006.25
2019-04-18T13:25:26.390Z,1006.28
2019-04-18T13:26:36.441Z,1006.23
2019-04-18T13:27:46.393Z,1006.14
2019-04-18T13:28:56.349Z,1006.23
2019-04-18T13:30:06.532Z,1006.28
2019-04-18T13:31:17.283Z,1006.26
2019-04-18T13:32:27.285Z,1006.29
2019-04-18T13:33:37.239Z,1006.29
2019-04-18T13:34:47.188Z,1006.3
2019-04-18T13:35:57.640Z,1006.27
2019-04-18T13:37:08.774Z,1006.26
2019-04-18T13:38:19.028Z,1006.32
2019-04-18T13:39:28.975Z,1006.29
2019-04-18T13:40:38.934Z,1006.28
2019-04-18T13:41:48.890Z,1006.25
2019-04-18T13:42:59.029Z,1006.24
2019-04-18T13:44:09.830Z,1006.27
2019-04-18T13:45:19.813Z,1006.24
2019-04-18T13:46:29.762Z,1006.21
2019-04-18T13:47:41.848Z,1006.16
2019-04-18T13:48:53.693Z,1006.22
2019-04-18T13:50:03.692Z,1006.13
2019-04-18T13:51:13.652Z,1006.17
2019-04-18T13:52:23.599Z,1006.14
2019-04-18T13:53:33.559Z,1006.11
2019-04-18T13:55:06.488Z,1006.13
2019-04-18T13:56:16.581Z,1006.17
2019-04-18T13:57:26.987Z,1006.17
2019-04-18T13:58:36.939Z,1006.16
2019-04-18T13:59:46.907Z,1006.17
2019-04-18T14:00:56.923Z,1006.13
2019-04-18T14:02:18.845Z,1006.15
2019-04-18T14:03:30.211Z,1006.11
2019-04-18T14:04:43.780Z,1006.11
2019-04-18T14:05:54.102Z,1006.11
2019-04-18T14:07:04.461Z,1006.09
2019-04-18T14:08:14.159Z,1006.02
2019-04-18T14:09:24.689Z,1006.03
2019-04-18T14:10:34.643Z,1006.06
2019-04-18T14:11:44.706Z,1006.03
2019-04-18T14:12:55.247Z,1006.01
2019-04-18T14:14:05.508Z,1006.03
2019-04-18T14:15:15.478Z,1006.14
2019-04-18T14:16:26.019Z,1006.04
2019-04-18T14:17:35.726Z,1006.01
2019-04-18T14:18:45.675Z,1006.08
2019-04-18T14:19:56.449Z,1006.16
2019-04-18T14:21:07.051Z,1006.13
2019-04-18T14:22:16.999Z,1006.19
2019-04-18T14:23:27.148Z,1005.97
2019-04-18T14:24:37.100Z,1005.91
2019-04-18T14:25:47.056Z,1006.05
2019-04-18T14:26:57.035Z,1006.13
2019-04-18T14:28:07.357Z,1006.14
2019-04-18T14:29:20.445Z,1006.13
2019-04-18T14:30:30.415Z,1006.21
2019-04-18T14:31:40.362Z,1006.16
2019-04-18T14:32:50.318Z,1006.26
2019-04-18T14:34:00.369Z,1006.35